Time;durP1;ratioP1;P1;durP2;ratioP2;P2;SDS_P1;SDS_P2;PMS_P1;PMS_P2;Temp;Humidity;BMP_temperature;BMP_pressure;BME280_temperature;BME280_humidity;BME280_pressure;Samples;Min_cycle;Max_cycle;Signal;HPM_P1;HPM_P2
2024/02/01 00:02:16;;;;;;;;;9.00;9.00;;;;;-144.24;100.00;114865.94;5035351;28;63971;-71
2024/02/01 00:04:42;;;;;;;;;11.33;9.33;;;;;-144.24;100.00;114865.94;5035548;28;45335;-74
2024/02/01 00:07:07;;;;;;;;;9.00;6.00;;;;;-144.24;100.00;114865.94;5021077;28;56980;-71
2024/02/01 00:09:32;;;;;;;;;9.00;9.00;;;;;-144.24;100.00;114865.94;5023064;28;45173;-72
2024/02/01 00:11:58;;;;;;;;;14.33;9.00;;;;;-144.24;100.00;114865.94;5025125;28;58063;-70
2024/02/01 00:14:23;;;;;;;;;10.00;7.33;;;;;-144.24;100.00;114865.94;5033181;28;45494;-71
2024/02/01 00:16:49;;;;;;;;;11.00;10.33;;;;;-144.24;100.00;114865.94;5024857;28;45415;-71
2024/02/01 00:19:14;;;;;;;;;13.00;7.67;;;;;-144.24;100.00;114865.94;5026973;28;46643;-74
2024/02/01 00:21:39;;;;;;;;;16.67;10.33;;;;;-144.24;100.00;114865.94;5033056;28;46365;-71
2024/02/01 00:24:05;;;;;;;;;8.33;8.00;;;;;-144.24;100.00;114865.94;5031073;28;45832;-70
2024/02/01 00:26:30;;;;;;;;;11.33;10.67;;;;;-144.24;100.00;114865.94;5036952;28;45324;-71
2024/02/01 00:28:56;;;;;;;;;9.67;9.00;;;;;-144.24;100.00;114865.94;5031530;28;46143;-73
2024/02/01 00:31:21;;;;;;;;;10.67;10.00;;;;;-144.24;100.00;114865.94;5032335;28;53601;-70
2024/02/01 00:33:46;;;;;;;;;10.33;9.00;;;;;-144.24;100.00;114865.94;5032866;28;51207;-71
2024/02/01 00:36:12;;;;;;;;;8.33;6.00;;;;;-144.24;100.00;114865.94;5023856;28;54376;-73
2024/02/01 00:38:37;;;;;;;;;13.00;10.00;;;;;-144.24;100.00;114865.94;5034734;28;46366;-72
2024/02/01 00:41:04;;;;;;;;;8.33;8.33;;;;;-144.24;100.00;114865.94;5025945;28;48094;-71
2024/02/01 00:43:30;;;;;;;;;12.33;9.33;;;;;-144.24;100.00;114865.94;5033786;28;45421;-71
2024/02/01 00:45:55;;;;;;;;;10.00;8.00;;;;;-144.24;100.00;114865.94;5024412;28;45236;-71
2024/02/01 00:48:20;;;;;;;;;10.00;9.00;;;;;-144.24;100.00;114865.94;5027548;28;45358;-72
2024/02/01 00:50:46;;;;;;;;;16.67;9.00;;;;;-144.24;100.00;114865.94;5025796;28;61388;-71
2024/02/01 00:53:11;;;;;;;;;9.67;9.67;;;;;-144.24;100.00;114865.94;5031166;28;60191;-71
2024/02/01 00:55:36;;;;;;;;;8.00;7.33;;;;;-144.24;100.00;114865.94;5031971;28;45525;-73
2024/02/01 00:58:02;;;;;;;;;8.00;8.00;;;;;-144.24;100.00;114865.94;5032521;28;45459;-72
2024/02/01 01:00:27;;;;;;;;;8.67;8.33;;;;;-144.24;100.00;114865.94;5030217;28;45498;-70
2024/02/01 01:02:53;;;;;;;;;10.00;9.00;;;;;-144.24;100.00;114865.94;5034048;28;45228;-71
2024/02/01 01:05:18;;;;;;;;;12.00;9.33;;;;;-144.24;100.00;114865.94;5030600;28;45449;-70
2024/02/01 01:07:43;;;;;;;;;10.33;6.00;;;;;-144.24;100.00;114865.94;5028170;28;46942;-71
2024/02/01 01:10:09;;;;;;;;;8.33;8.33;;;;;-144.24;100.00;114865.94;5031844;28;61501;-73
2024/02/01 01:12:34;;;;;;;;;13.67;10.00;;;;;-144.24;100.00;114865.94;5032234;28;45503;-70
2024/02/01 01:14:59;;;;;;;;;9.00;8.33;;;;;-144.24;100.00;114865.94;5024897;28;45481;-71
2024/02/01 01:17:25;;;;;;;;;15.33;9.67;;;;;-144.24;100.00;114865.94;5028857;28;45687;-71
2024/02/01 01:19:50;;;;;;;;;14.00;11.00;;;;;-144.24;100.00;114865.94;5029819;28;64836;-71
2024/02/01 01:22:16;;;;;;;;;10.33;8.00;;;;;-144.24;100.00;114865.94;5036476;28;45288;-71
2024/02/01 01:24:41;;;;;;;;;10.33;10.33;;;;;-144.24;100.00;114865.94;5034298;28;45428;-71
2024/02/01 01:27:06;;;;;;;;;13.00;10.00;;;;;-144.24;100.00;114865.94;5003284;28;49552;-71
2024/02/01 01:29:32;;;;;;;;;11.67;7.67;;;;;-144.24;100.00;114865.94;5027480;28;46738;-71
2024/02/01 01:31:57;;;;;;;;;11.00;11.00;;;;;-144.24;100.00;114865.94;5027356;28;59011;-74
2024/02/01 01:34:23;;;;;;;;;12.33;10.00;;;;;-144.24;100.00;114865.94;5026857;28;45374;-73
2024/02/01 01:36:48;;;;;;;;;9.00;9.00;;;;;-144.24;100.00;114865.94;5029540;28;45650;-71
2024/02/01 01:39:13;;;;;;;;;10.33;9.00;;;;;-144.24;100.00;114865.94;5029575;28;63703;-71
2024/02/01 01:41:45;;;;;;;;;12.67;10.00;;;;;-144.24;100.00;114865.94;5031830;28;45409;-71
2024/02/01 01:44:11;;;;;;;;;12.67;12.67;;;;;-144.24;100.00;114865.94;5032021;28;45351;-73
2024/02/01 01:46:37;;;;;;;;;10.67;10.67;;;;;-144.24;100.00;114865.94;5035082;28;45467;-71
2024/02/01 01:49:04;;;;;;;;;13.00;9.67;;;;;-144.24;100.00;114865.94;5033663;28;63501;-71
2024/02/01 01:51:31;;;;;;;;;10.00;10.00;;;;;-144.24;100.00;114865.94;5026728;28;45394;-71
2024/02/01 01:53:56;;;;;;;;;11.00;9.00;;;;;-144.24;100.00;114865.94;5027039;28;45599;-72
2024/02/01 01:56:23;;;;;;;;;17.33;11.67;;;;;-144.24;100.00;114865.94;5028607;28;55488;-71
2024/02/01 01:58:49;;;;;;;;;8.67;8.67;;;;;-144.24;100.00;114837.41;5030841;28;45764;-72
2024/02/01 02:01:14;;;;;;;;;11.67;10.33;;;;;-144.24;100.00;114768.13;5028912;28;48127;-71
2024/02/01 02:03:41;;;;;;;;;10.67;10.00;;;;;-144.24;100.00;114719.22;5025409;28;49253;-72
2024/02/01 02:06:07;;;;;;;;;14.33;9.67;;;;;-144.24;100.00;114686.63;5035339;28;53812;-71
2024/02/01 02:08:33;;;;;;;;;13.33;13.33;;;;;-144.24;100.00;114619.41;5035110;28;46576;-71
2024/02/01 02:10:58;;;;;;;;;9.33;7.67;;;;;-144.24;100.00;114564.38;5031974;28;45390;-72
2024/02/01 02:13:24;;;;;;;;;10.00;10.00;;;;;-144.24;100.00;114552.16;5038114;28;45460;-71
2024/02/01 02:15:50;;;;;;;;;11.00;10.00;;;;;-144.24;100.00;114427.88;5024388;28;45436;-71
2024/02/01 02:18:15;;;;;;;;;11.33;10.00;;;;;-144.24;100.00;114411.56;5032646;28;46600;-71
2024/02/01 02:20:42;;;;;;;;;11.00;11.00;;;;;-144.24;100.00;114366.75;5036805;28;50878;-72
2024/02/01 02:23:10;;;;;;;;;15.33;12.00;;;;;-144.24;100.00;114289.34;5017088;28;45392;-73
2024/02/01 02:25:36;;;;;;;;;15.00;10.67;;;;;-144.24;100.00;114281.19;5038065;28;45394;-71
2024/02/01 02:28:01;;;;;;;;;14.67;11.33;;;;;-144.24;100.00;114242.47;5034980;28;45376;-71
2024/02/01 02:30:27;;;;;;;;;12.00;9.00;;;;;-144.24;100.00;114258.78;5033206;28;45413;-71
2024/02/01 02:32:53;;;;;;;;;10.33;8.67;;;;;-144.24;100.00;114213.97;5018602;28;45582;-72
2024/02/01 02:35:19;;;;;;;;;13.67;9.33;;;;;-144.24;100.00;114175.25;5033214;28;45347;-71
2024/02/01 02:37:49;;;;;;;;;10.33;10.00;;;;;-144.24;100.00;114165.06;5028056;28;45465;-73
2024/02/01 02:40:16;;;;;;;;;17.00;12.00;;;;;-144.24;100.00;114097.84;5020013;28;45383;-73
2024/02/01 02:42:42;;;;;;;;;12.33;9.00;;;;;-144.24;100.00;114014.31;5034025;28;45518;-70
2024/02/01 02:45:08;;;;;;;;;11.33;10.33;;;;;-144.24;100.00;114010.22;5036816;28;45495;-71
2024/02/01 02:47:33;;;;;;;;;11.67;11.00;;;;;-144.24;100.00;113987.81;5033704;28;46589;-72
2024/02/01 02:49:58;;;;;;;;;11.67;10.00;;;;;-144.24;100.00;114010.22;5021601;28;60229;-71
2024/02/01 02:52:24;;;;;;;;;12.00;11.00;;;;;-144.24;100.00;113995.97;5035546;28;45310;-71
2024/02/01 02:54:49;;;;;;;;;11.67;10.00;;;;;-144.24;100.00;114024.50;5027643;28;45912;-70
2024/02/01 02:57:14;;;;;;;;;14.67;10.00;;;;;-144.24;100.00;113971.53;5036240;28;48711;-71
2024/02/01 02:59:41;;;;;;;;;13.00;11.67;;;;;-144.24;100.00;113963.38;5036669;28;57109;-71
2024/02/01 03:02:07;;;;;;;;;17.67;11.33;;;;;-144.24;100.00;113863.56;5037754;28;45327;-73
2024/02/01 03:04:35;;;;;;;;;12.00;10.33;;;;;-144.24;100.00;113833.00;5034569;28;45481;-72
2024/02/01 03:07:01;;;;;;;;;12.00;10.00;;;;;-144.24;100.00;113824.84;5025812;28;45803;-71
2024/02/01 03:09:27;;;;;;;;;12.00;10.00;;;;;-144.24;100.00;113755.59;5026511;28;45259;-71
2024/02/01 03:11:52;;;;;;;;;13.00;10.00;;;;;-144.24;100.00;113731.16;5035137;28;45523;-71
2024/02/01 03:14:17;;;;;;;;;10.00;10.00;;;;;-144.24;100.00;113631.34;5029035;28;45410;-71
2024/02/01 03:16:43;;;;;;;;;14.00;12.00;;;;;-144.24;100.00;113596.72;5026768;28;54638;-71
2024/02/01 03:19:11;;;;;;;;;13.33;10.00;;;;;-144.24;100.00;113527.47;5029811;28;53636;-73
2024/02/01 03:21:36;;;;;;;;;17.33;12.67;;;;;-144.24;100.00;113413.38;5023764;28;45364;-72
2024/02/01 03:24:02;;;;;;;;;12.67;12.00;;;;;-144.24;100.00;113323.75;5029920;28;45392;-73
2024/02/01 03:26:34;;;;;;;;;12.00;9.33;;;;;-144.24;100.00;113168.97;5027427;28;47626;-71
2024/02/01 03:29:00;;;;;;;;;16.00;12.00;;;;;-144.24;100.00;113091.56;5032164;28;45417;-71
2024/02/01 03:31:33;;;;;;;;;16.00;12.00;;;;;-144.24;100.00;113036.59;5037407;28;45505;-71
2024/02/01 03:34:05;;;;;;;;;12.00;10.67;;;;;-144.24;100.00;112922.53;5036603;28;45512;-71
2024/02/01 03:36:34;;;;;;;;;15.33;11.00;;;;;-144.24;100.00;112667.97;5037151;28;46910;-71
2024/02/01 03:39:00;;;;;;;;;13.00;11.67;;;;;-144.24;100.00;112431.75;5031953;28;45418;-70
2024/02/01 03:41:25;;;;;;;;;16.33;12.33;;;;;-144.24;100.00;112276.97;5039077;28;45503;-71
2024/02/01 03:43:51;;;;;;;;;11.00;11.00;;;;;-144.24;100.00;111918.59;5036031;28;45596;-71
2024/02/01 03:46:18;;;;;;;;;14.00;11.33;;;;;-144.24;100.00;111715.00;5032779;28;45494;-71
2024/02/01 03:48:43;;;;;;;;;14.67;10.00;;;;;-144.24;100.00;111560.25;5035818;28;45429;-74
2024/02/01 03:51:09;;;;;;;;;11.67;10.00;;;;;-144.24;100.00;111315.97;5026901;28;45303;-71
2024/02/01 03:53:36;;;;;;;;;9.67;9.67;;;;;-144.24;100.00;110978.03;5026818;28;45516;-71
2024/02/01 03:56:04;;;;;;;;;16.00;12.00;;;;;-144.24;100.00;110833.50;5036355;28;45440;-71
2024/02/01 03:58:32;;;;;;;;;10.33;8.00;;;;;-144.24;100.00;110587.19;5030051;28;45393;-71
2024/02/01 04:01:00;;;;;;;;;10.67;10.67;;;;;-144.24;100.00;110269.69;5031651;28;45378;-71
2024/02/01 04:03:26;;;;;;;;;10.67;9.33;;;;;-144.24;100.00;110080.41;5037014;28;45319;-70
2024/02/01 04:05:53;;;;;;;;;10.00;8.67;;;;;-144.24;100.00;109813.81;5025096;28;45815;-72
2024/02/01 04:08:19;;;;;;;;;12.33;9.67;;;;;-144.24;100.00;109551.28;5036421;28;45315;-71
2024/02/01 04:10:45;;;;;;;;;16.33;11.00;;;;;-144.24;100.00;109396.63;5021747;28;45423;-71
2024/02/01 04:13:11;;;;;;;;;13.00;11.33;;;;;-144.24;100.00;109146.34;5018714;28;45489;-71
2024/02/01 04:15:37;;;;;;;;;10.67;10.67;;;;;-144.24;100.00;108979.50;5029134;28;46540;-71
2024/02/01 04:18:04;;;;;;;;;14.67;10.67;;;;;-144.24;100.00;108761.81;5033167;28;45341;-72
2024/02/01 04:20:33;;;;;;;;;12.33;10.67;;;;;-144.24;100.00;108556.31;5034522;28;45388;-71
2024/02/01 04:22:58;;;;;;;;;12.33;10.33;;;;;-144.24;100.00;108379.34;5025539;28;45471;-73
2024/02/01 04:25:24;;;;;;;;;10.33;9.33;;;;;-144.24;100.00;108123.00;5031661;28;70430;-71
2024/02/01 04:27:50;;;;;;;;;14.33;12.00;;;;;-144.24;100.00;107948.06;5027152;28;45601;-71
2024/02/01 04:30:19;;;;;;;;;11.67;9.67;;;;;-144.24;100.00;107791.44;5028028;28;45382;-73
2024/02/01 04:32:45;;;;;;;;;13.00;11.00;;;;;-144.24;100.00;107634.81;5031070;28;45423;-72
2024/02/01 04:35:15;;;;;;;;;13.00;10.00;;;;;-144.24;100.00;107498.56;5027441;28;46041;-70
2024/02/01 04:37:41;;;;;;;;;10.00;9.67;;;;;-144.24;100.00;107400.94;5032672;28;45414;-73
2024/02/01 04:40:08;;;;;;;;;12.00;11.00;;;;;-144.24;100.00;107325.69;5042622;28;45634;-71
2024/02/01 04:42:35;;;;;;;;;11.33;11.00;;;;;-144.24;100.00;107108.06;5037279;28;45467;-71
2024/02/01 04:45:04;;;;;;;;;9.00;9.00;;;;;-144.24;100.00;107136.53;5036272;28;46816;-71
2024/02/01 04:47:33;;;;;;;;;13.33;9.67;;;;;-144.24;100.00;107012.47;5035394;28;45468;-73
2024/02/01 04:49:59;;;;;;;;;14.33;11.67;;;;;-144.24;100.00;106632.19;5032935;28;45469;-72
2024/02/01 04:52:24;;;;;;;;;13.33;11.67;;;;;-144.24;100.00;105997.81;5037937;28;45642;-71
2024/02/01 04:54:50;;;;;;;;;10.00;10.00;;;;;-144.24;100.00;105162.25;5027607;28;45514;-72
2024/02/01 04:57:15;;;;;;;;;14.67;10.33;;;;;-144.24;100.00;104213.09;5037328;28;54829;-70
2024/02/01 04:59:43;;;;;;;;;13.33;12.33;;;;;-144.24;100.00;103229.59;5037208;28;45578;-70
2024/02/01 05:02:14;;;;;;;;;16.67;12.67;;;;;-144.24;100.00;102347.88;5035609;28;45434;-70
2024/02/01 05:04:39;;;;;;;;;16.67;12.67;;;;;-144.24;100.00;101464.34;5036398;28;46531;-71
2024/02/01 05:07:05;;;;;;;;;12.00;10.00;;;;;-144.24;100.00;100469.34;5029279;28;45215;-71
2024/02/01 05:09:38;;;;;;;;;15.00;13.67;;;;;-144.24;100.00;99768.91;5028448;28;45285;-72
2024/02/01 05:12:06;;;;;;;;;14.33;12.00;;;;;-144.24;100.00;98782.44;5038588;28;45479;-71
2024/02/01 05:14:31;;;;;;;;;14.33;11.67;;;;;-144.24;100.00;98066.06;5026450;28;46961;-71
2024/02/01 05:16:57;;;;;;;;;10.00;10.00;;;;;-144.24;100.00;97380.25;5034721;28;45414;-72
2024/02/01 05:19:22;;;;;;;;;11.33;11.33;;;;;-144.24;100.00;96824.41;5038045;28;45546;-71
2024/02/01 05:21:48;;;;;;;;;16.00;12.00;;;;;-144.24;100.00;96209.78;5036505;28;45440;-71
2024/02/01 05:24:13;;;;;;;;;12.00;11.00;;;;;-144.24;100.00;95637.84;5028805;28;45284;-72
2024/02/01 05:26:50;;;;;;;;;15.00;10.33;;;;;-144.24;100.00;94753.75;5033658;28;45460;-71
2024/02/01 05:29:25;;;;;;;;;12.33;11.67;;;;;-144.24;100.00;94530.75;5025721;28;45424;-71
2024/02/01 05:31:51;;;;;;;;;14.00;9.67;;;;;-144.24;100.00;93632.69;5029742;28;45458;-71
2024/02/01 05:34:18;;;;;;;;;13.67;9.00;;;;;-144.24;100.00;93282.03;5038471;28;45747;-71
2024/02/01 05:36:47;;;;;;;;;15.00;9.67;;;;;-144.24;100.00;92876.72;5038456;28;45469;-71
2024/02/01 05:39:26;;;;;;;;;13.00;11.00;;;;;-144.24;100.00;92426.84;5036410;28;45426;-71
2024/02/01 05:41:58;;;;;;;;;16.00;12.00;;;;;-144.24;100.00;92003.34;5043114;28;45411;-71
2024/02/01 05:44:25;;;;;;;;;13.67;11.33;;;;;-144.24;100.00;91531.28;5038794;28;46819;-72
2024/02/01 05:46:55;;;;;;;;;10.67;9.67;;;;;-144.24;100.00;91136.25;5019397;28;45633;-72
2024/02/01 05:49:22;;;;;;;;;13.50;12.00;;;;;-144.24;100.00;90714.91;5036522;28;45424;-71
2024/02/01 05:51:51;;;;;;;;;12.67;11.33;;;;;-144.24;100.00;90530.59;5035530;28;45515;-70
2024/02/01 05:54:19;;;;;;;;;18.00;11.67;;;;;-144.24;100.00;89977.69;5035508;28;46999;-72
2024/02/01 05:56:45;;;;;;;;;16.00;11.67;;;;;-144.24;100.00;89916.94;5037779;28;45367;-73
2024/02/01 05:59:12;;;;;;;;;15.00;15.00;;;;;-144.24;100.00;89878.47;5018099;28;45421;-71
2024/02/01 06:01:38;;;;;;;;;11.00;11.00;;;;;-144.24;100.00;89787.34;5027470;28;45356;-71
2024/02/01 06:04:04;;;;;;;;;11.00;9.00;;;;;-144.24;100.00;89603.06;5033388;28;46421;-71
2024/02/01 06:06:30;;;;;;;;;16.00;11.00;;;;;-144.24;100.00;89343.88;5021189;28;45492;-71
2024/02/01 06:08:57;;;;;;;;;13.25;11.00;;;;;-144.24;100.00;89416.78;5038229;28;45429;-71
2024/02/01 06:11:22;;;;;;;;;16.50;12.00;;;;;-144.24;100.00;89173.81;5038457;28;45267;-69
2024/02/01 06:13:48;;;;;;;;;12.67;12.67;;;;;-144.24;100.00;88918.69;5038507;28;45227;-72
2024/02/01 06:16:13;;;;;;;;;15.33;10.67;;;;;-144.24;100.00;88643.38;5023960;28;45194;-72
2024/02/01 06:18:39;;;;;;;;;15.33;12.00;;;;;-144.24;100.00;88463.19;5024931;28;62815;-73
2024/02/01 06:21:05;;;;;;;;;13.00;11.33;;;;;-144.24;100.00;88364.00;5023835;28;45548;-71
2024/02/01 06:23:30;;;;;;;;;14.67;12.67;;;;;-144.24;100.00;88161.56;5031046;28;45514;-71
2024/02/01 06:25:56;;;;;;;;;15.00;12.33;;;;;-144.24;100.00;88177.75;5036733;28;64168;-76
2024/02/01 06:28:23;;;;;;;;;16.00;15.33;;;;;-144.24;100.00;87975.34;5024803;28;45978;-75
2024/02/01 06:30:48;;;;;;;;;17.00;13.00;;;;;-144.24;100.00;87752.69;5026998;28;45495;-73
2024/02/01 06:33:14;;;;;;;;;16.00;13.75;;;;;-144.24;100.00;87726.38;5031598;28;46527;-72
2024/02/01 06:35:42;;;;;;;;;13.33;10.67;;;;;-144.24;100.00;87641.38;5153066;22;46911;-73
2024/02/01 06:38:22;;;;;;;;;17.00;13.67;;;;;-144.24;100.00;87667.69;5028257;28;45526;-73
2024/02/01 06:40:56;;;;;;;;;17.50;13.00;;;;;-144.24;100.00;87382.31;5029341;28;45477;-73
2024/02/01 06:43:31;;;;;;;;;15.67;12.67;;;;;-144.24;100.00;87258.88;5027170;28;45846;-74
2024/02/01 06:46:08;;;;;;;;;17.00;15.00;;;;;-144.24;100.00;86965.44;5020734;28;45433;-73
2024/02/01 06:48:41;;;;;;;;;17.00;15.33;;;;;-144.24;100.00;87076.72;5025179;28;45450;-73
2024/02/01 06:51:25;;;;;;;;;16.00;12.67;;;;;-144.24;100.00;86943.19;5015458;28;45588;-73
2024/02/01 06:53:56;;;;;;;;;20.25;12.50;;;;;-144.24;100.00;86781.28;5021522;28;45857;-73
2024/02/01 06:56:44;;;;;;;;;18.67;14.33;;;;;-144.24;100.00;86793.44;5017374;28;45377;-73
2024/02/01 06:59:29;;;;;;;;;13.00;13.00;;;;;-144.24;100.00;86868.31;5031316;28;45626;-73
2024/02/01 07:04:53;;;;;;;;;15.00;12.33;;;;;-144.24;100.00;86352.31;5024472;28;45518;-73
2024/02/01 07:07:29;;;;;;;;;17.00;13.00;;;;;-144.24;100.00;86587.03;5029661;28;46727;-72
2024/02/01 07:10:05;;;;;;;;;13.00;11.33;;;;;-144.24;100.00;86621.44;5035876;28;45487;-73
2024/02/01 07:12:42;;;;;;;;;16.00;14.33;;;;;-144.24;100.00;86651.78;5019549;28;45478;-73
2024/02/01 07:15:30;;;;;;;;;16.00;11.00;;;;;-144.24;100.00;86441.34;5020948;28;45842;-73
2024/02/01 07:18:14;;;;;;;;;16.67;11.33;;;;;-144.24;100.00;86473.72;5045537;28;46745;-73
2024/02/01 07:20:50;;;;;;;;;16.50;15.00;;;;;-144.24;100.00;86295.66;5036643;28;45447;-73
2024/02/01 07:26:16;;;;;;;;;16.25;12.75;;;;;-144.24;100.00;86332.09;5032698;28;46214;-73
2024/02/01 07:58:49;;;;;;;;;17.00;15.67;;;;;-144.24;100.00;84810.84;5044856;28;45902;-69
2024/02/01 08:01:18;;;;;;;;;21.25;15.00;;;;;-144.24;100.00;85059.63;5026600;28;46050;-71
2024/02/01 08:09:14;;;;;;;;;13.75;13.50;;;;;-144.24;100.00;84392.22;5047816;28;45497;-68
2024/02/01 08:11:42;;;;;;;;;16.33;13.00;;;;;-144.24;100.00;84687.47;5026258;28;45458;-68
2024/02/01 08:14:11;;;;;;;;;15.00;11.00;;;;;-144.24;100.00;84562.09;5044740;28;45519;-68
2024/02/01 08:16:41;;;;;;;;;11.33;10.67;;;;;-144.24;100.00;84758.28;5044799;28;45686;-70
2024/02/01 08:19:07;;;;;;;;;11.00;11.00;;;;;-144.24;100.00;84454.91;5046458;28;45631;-69
2024/02/01 08:21:37;;;;;;;;;11.67;10.67;;;;;-144.24;100.00;84264.81;5048334;28;45498;-69
2024/02/01 08:24:05;;;;;;;;;11.67;10.33;;;;;-144.24;100.00;84064.63;5034949;28;45850;-68
2024/02/01 08:26:37;;;;;;;;;18.67;16.00;;;;;-144.24;100.00;83807.81;5050450;28;45649;-68
2024/02/01 08:29:06;;;;;;;;;12.00;11.00;;;;;-144.24;100.00;83504.50;5045033;28;46661;-69
2024/02/01 08:31:41;;;;;;;;;17.33;12.00;;;;;-144.24;100.00;83330.63;5028520;28;45792;-69
2024/02/01 08:34:14;;;;;;;;;11.00;11.00;;;;;-144.24;100.00;82930.34;5044176;28;45461;-69
2024/02/01 08:36:43;;;;;;;;;12.67;10.00;;;;;-144.24;100.00;82665.53;5035328;28;45551;-71
2024/02/01 08:39:09;;;;;;;;;11.00;10.00;;;;;-144.24;100.00;82212.75;5032656;28;47004;-72
2024/02/01 08:41:37;;;;;;;;;11.33;7.67;;;;;-144.24;100.00;82065.19;5044977;28;45762;-70
2024/02/01 08:44:03;;;;;;;;;10.00;10.00;;;;;-144.24;100.00;81806.50;5047103;28;45431;-71
2024/02/01 08:46:28;;;;;;;;;8.00;8.00;;;;;-144.24;100.00;81495.28;5031390;28;45668;-69
2024/02/01 08:48:54;;;;;;;;;10.67;10.33;;;;;-144.24;100.00;81285.09;5044343;28;62636;-70
2024/02/01 08:51:19;;;;;;;;;11.00;8.33;;;;;-144.24;100.00;81034.53;5043350;28;45445;-69
2024/02/01 08:53:45;;;;;;;;;11.33;9.00;;;;;-144.24;100.00;80808.22;5042209;28;45672;-71
2024/02/01 08:56:11;;;;;;;;;12.00;10.33;;;;;-144.24;100.00;80539.50;5049219;28;45489;-70
2024/02/01 08:58:38;;;;;;;;;11.00;9.00;;;;;-144.24;100.00;80420.31;5045900;28;46696;-70
2024/02/01 09:01:04;;;;;;;;;8.33;6.00;;;;;-144.24;100.00;80123.34;5050068;28;45569;-69
2024/02/01 09:03:29;;;;;;;;;10.00;8.00;;;;;-144.24;100.00;79921.31;5031159;28;45478;-69
2024/02/01 09:05:56;;;;;;;;;13.67;9.67;;;;;-144.24;100.00;79537.53;5050188;28;45863;-69
2024/02/01 09:08:35;;;;;;;;;12.00;10.00;;;;;-144.24;100.00;79373.91;5048713;28;45836;-69
2024/02/01 09:11:09;;;;;;;;;10.00;8.00;;;;;-144.24;100.00;78806.41;5047037;28;45382;-72
2024/02/01 09:13:35;;;;;;;;;7.00;7.00;;;;;-144.24;100.00;78602.44;5026540;28;45379;-68
2024/02/01 09:16:00;;;;;;;;;10.33;6.00;;;;;-144.24;100.00;78517.63;5034751;28;45470;-69
2024/02/01 09:18:26;;;;;;;;;5.67;5.67;;;;;-144.24;100.00;78283.38;5028189;28;45893;-69
2024/02/01 09:20:52;;;;;;;;;5.67;5.67;;;;;-144.24;100.00;78119.81;5029051;28;45499;-69
2024/02/01 09:23:18;;;;;;;;;9.00;5.00;;;;;-144.24;100.00;77821.00;5047062;28;45486;-68
2024/02/01 09:25:43;;;;;;;;;12.00;6.00;;;;;-144.24;100.00;77504.03;5028089;28;45579;-69
2024/02/01 09:28:12;;;;;;;;;7.00;5.00;;;;;-144.24;100.00;77156.78;5049936;28;45726;-69
2024/02/01 09:30:45;;;;;;;;;7.00;6.00;;;;;-144.24;100.00;76736.94;5043280;28;45561;-69
2024/02/01 09:33:13;;;;;;;;;5.00;5.00;;;;;-144.24;100.00;76482.59;5045010;28;45544;-72
2024/02/01 09:35:39;;;;;;;;;7.33;7.33;;;;;-144.24;100.00;76224.28;5043518;28;45844;-71
2024/02/01 09:38:04;;;;;;;;;6.00;5.00;;;;;-144.24;100.00;76066.84;5049611;28;46768;-69
2024/02/01 09:40:30;;;;;;;;;6.67;6.67;;;;;-144.24;100.00;75863.03;5030348;28;45495;-71
2024/02/01 09:42:55;;;;;;;;;6.00;6.00;;;;;-144.24;100.00;75723.78;5032635;28;45446;-69
2024/02/01 09:45:28;;;;;;;;;3.33;2.33;;;;;-144.24;100.00;75606.75;5049767;28;45362;-72
2024/02/01 09:47:55;;;;;;;;;8.00;5.00;;;;;-144.24;100.00;75302.06;5032303;28;45941;-69
2024/02/01 09:50:20;;;;;;;;;5.00;5.00;;;;;-144.24;100.00;75300.03;5033469;28;45924;-70
2024/02/01 09:52:47;;;;;;;;;6.67;6.33;;;;;-144.24;100.00;74991.31;5029898;28;45461;-70
2024/02/01 09:55:22;;;;;;;;;6.00;5.00;;;;;-144.24;100.00;74781.50;5037259;28;46229;-72
2024/02/01 09:57:49;;;;;;;;;7.00;7.00;;;;;-144.24;100.00;74515.22;5051166;28;46959;-69
2024/02/01 10:00:18;;;;;;;;;5.33;4.67;;;;;-144.24;100.00;74327.59;5052058;28;45739;-69
2024/02/01 10:02:48;;;;;;;;;10.00;7.33;;;;;-144.24;100.00;74293.31;5032403;28;45288;-69
2024/02/01 10:05:14;;;;;;;;;10.00;5.00;;;;;-144.24;100.00;74018.97;5017566;28;45551;-69
2024/02/01 10:07:40;;;;;;;;;8.00;5.00;;;;;-144.24;100.00;74027.03;5035556;28;45915;-70
2024/02/01 10:10:06;;;;;;;;;7.00;6.00;;;;;-144.24;100.00;74037.13;5033734;28;45667;-69
2024/02/01 10:12:32;;;;;;;;;9.33;6.00;;;;;-144.24;100.00;74037.13;5047895;28;45588;-69
2024/02/01 10:14:58;;;;;;;;;5.33;5.33;;;;;-144.24;100.00;73875.75;5045346;28;45516;-70
2024/02/01 10:17:24;;;;;;;;;6.00;6.00;;;;;-144.24;100.00;73716.41;5031774;28;45759;-69
2024/02/01 10:19:52;;;;;;;;;7.67;4.00;;;;;-144.24;100.00;73619.59;5048782;28;45317;-70
2024/02/01 10:22:19;;;;;;;;;11.67;10.00;;;;;-144.24;100.00;73349.34;5047964;28;45559;-73
2024/02/01 10:24:48;;;;;;;;;9.00;6.33;;;;;-144.24;100.00;73337.25;5048606;28;45474;-70
2024/02/01 10:27:21;;;;;;;;;9.33;9.33;;;;;-144.24;100.00;73194.06;5031580;28;47243;-70
2024/02/01 10:29:47;;;;;;;;;11.00;7.00;;;;;-144.24;100.00;73165.81;5032501;28;45459;-75
2024/02/01 10:32:16;;;;;;;;;10.33;8.00;;;;;-144.24;100.00;73135.56;5026101;28;46341;-70
2024/02/01 10:34:45;;;;;;;;;10.33;10.33;;;;;-144.24;100.00;72847.19;5051950;28;45530;-70
2024/02/01 10:37:13;;;;;;;;;5.33;5.33;;;;;-144.24;100.00;72659.66;5033523;28;48763;-70
2024/02/01 10:39:39;;;;;;;;;8.33;5.00;;;;;-144.24;100.00;72589.09;5033282;28;46352;-71
2024/02/01 10:42:08;;;;;;;;;7.00;5.67;;;;;-144.24;100.00;72399.56;5030300;28;45527;-73
2024/02/01 10:44:39;;;;;;;;;7.00;7.00;;;;;-144.24;100.00;72266.50;5029606;28;45593;-73
2024/02/01 10:47:13;;;;;;;;;5.00;5.00;;;;;-144.24;100.00;72004.38;5046854;28;46685;-71
2024/02/01 10:49:42;;;;;;;;;6.33;6.00;;;;;-144.24;100.00;71806.81;5031366;28;45553;-71
2024/02/01 10:52:09;;;;;;;;;8.00;6.00;;;;;-144.24;100.00;72062.84;5034447;28;45555;-71
2024/02/01 10:54:35;;;;;;;;;7.00;6.33;;;;;-144.24;100.00;72064.88;5030163;28;45374;-73
2024/02/01 10:57:05;;;;;;;;;6.33;5.00;;;;;-144.24;100.00;72022.53;5049394;28;74502;-71
2024/02/01 10:59:30;;;;;;;;;7.00;7.00;;;;;-144.24;100.00;71949.97;5033646;28;45412;-71
2024/02/01 11:01:56;;;;;;;;;4.00;2.67;;;;;-144.24;100.00;71800.78;5033058;28;45632;-68
2024/02/01 11:04:21;;;;;;;;;8.00;6.67;;;;;-144.24;100.00;71639.50;5028060;28;67430;-70
2024/02/01 11:06:48;;;;;;;;;6.00;6.00;;;;;-144.24;100.00;71510.47;5049490;28;45740;-72
2024/02/01 11:09:18;;;;;;;;;13.67;8.67;;;;;-144.24;100.00;71520.56;5034997;28;46194;-72
2024/02/01 11:11:48;;;;;;;;;12.00;8.00;;;;;-144.24;100.00;71377.44;5046236;28;45448;-72
2024/02/01 11:14:17;;;;;;;;;10.00;8.67;;;;;-144.24;100.00;71385.50;5050226;28;45408;-72
2024/02/01 11:16:50;;;;;;;;;8.00;7.00;;;;;-144.24;100.00;71200.06;5049811;28;45825;-71
2024/02/01 11:19:22;;;;;;;;;6.00;6.00;;;;;-144.24;100.00;70905.78;5047759;28;45411;-71
2024/02/01 11:22:18;;;;;;;;;10.00;7.00;;;;;-144.24;100.00;70976.31;5041623;28;45461;-69
2024/02/01 11:24:44;;;;;;;;;6.00;6.00;;;;;-144.24;100.00;70516.78;5046798;28;45454;-70
2024/02/01 11:27:20;;;;;;;;;6.67;6.67;;;;;-144.24;100.00;70536.94;5052574;28;71475;-72
2024/02/01 11:29:47;;;;;;;;;10.33;6.00;;;;;-144.24;100.00;70603.47;5046561;28;45517;-71
2024/02/01 11:32:20;;;;;;;;;5.33;5.33;;;;;-144.24;100.00;70629.66;5051006;28;45418;-71
2024/02/01 11:34:59;;;;;;;;;5.00;5.00;;;;;-144.24;100.00;70643.75;5051841;28;45443;-71
2024/02/01 11:37:24;;;;;;;;;5.33;5.33;;;;;-144.24;100.00;70514.78;5034065;28;47588;-72
2024/02/01 11:39:51;;;;;;;;;8.00;6.00;;;;;-144.24;100.00;70472.47;5046812;28;45592;-71
2024/02/01 11:42:21;;;;;;;;;10.00;5.33;;;;;-144.24;100.00;70577.25;5050924;28;45426;-70